createdAt,value
2022-10-08T00:00:28.885Z,11.23
2022-10-08T00:01:51.985Z,11.22
2022-10-08T00:02:54.995Z,11.20
2022-10-08T00:03:58.561Z,11.19
2022-10-08T00:05:02.266Z,11.19
2022-10-08T00:06:15.051Z,11.18
2022-10-08T00:07:19.262Z,11.17
2022-10-08T00:08:22.158Z,11.15
2022-10-08T00:09:25.176Z,11.14
2022-10-08T00:10:28.163Z,11.14
2022-10-08T00:11:38.195Z,11.13
2022-10-08T00:12:45.215Z,11.11
2022-10-08T00:13:50.479Z,11.10
2022-10-08T00:14:54.140Z,11.08
2022-10-08T00:15:58.282Z,11.08
2022-10-08T00:17:01.322Z,11.07
2022-10-08T00:18:04.548Z,11.05
2022-10-08T00:19:11.714Z,11.03
2022-10-08T00:20:14.817Z,11.03
2022-10-08T00:21:24.163Z,11.03
2022-10-08T00:22:27.212Z,11.02
2022-10-08T00:23:30.250Z,11.01
2022-10-08T00:24:33.205Z,10.99
2022-10-08T00:25:44.107Z,10.99
2022-10-08T00:26:47.790Z,10.97
2022-10-08T00:27:51.243Z,10.97
2022-10-08T00:28:58.310Z,10.96
2022-10-08T00:30:01.393Z,10.95
2022-10-08T00:31:10.065Z,10.94
2022-10-08T00:32:13.223Z,10.94
2022-10-08T00:33:16.156Z,10.93
2022-10-08T00:34:23.256Z,10.92
2022-10-08T00:35:26.327Z,10.91
2022-10-08T00:36:34.482Z,10.91
2022-10-08T00:37:37.485Z,10.89
2022-10-08T00:38:40.806Z,10.88
2022-10-08T00:39:44.633Z,10.86
2022-10-08T00:40:47.702Z,10.85
2022-10-08T00:41:54.042Z,10.84
2022-10-08T00:43:00.420Z,10.82
2022-10-08T00:44:24.353Z,10.80
2022-10-08T00:45:27.538Z,10.78
2022-10-08T00:46:48.719Z,10.76
2022-10-08T00:47:54.084Z,10.74
2022-10-08T00:49:11.476Z,10.73
2022-10-08T00:50:16.794Z,10.72
2022-10-08T00:51:19.847Z,10.71
2022-10-08T00:52:25.157Z,10.71
2022-10-08T00:53:28.180Z,10.70
2022-10-08T00:54:32.723Z,10.71
2022-10-08T00:55:43.155Z,10.70
2022-10-08T00:56:52.529Z,10.69
2022-10-08T00:58:22.497Z,10.68
2022-10-08T00:59:26.383Z,10.66
2022-10-08T01:00:30.585Z,10.65
2022-10-08T01:01:34.780Z,10.65
2022-10-08T01:02:37.995Z,10.65
2022-10-08T01:03:40.992Z,10.65
2022-10-08T01:04:44.288Z,10.64
2022-10-08T01:06:10.045Z,10.64
2022-10-08T01:07:33.088Z,10.63
2022-10-08T01:09:01.033Z,10.62
2022-10-08T01:10:14.273Z,10.61
2022-10-08T01:11:28.854Z,10.61
2022-10-08T01:12:52.561Z,10.62
2022-10-08T01:14:14.216Z,10.61
2022-10-08T01:15:39.807Z,10.61
2022-10-08T01:16:55.833Z,10.60
2022-10-08T01:18:29.069Z,10.59
2022-10-08T01:19:48.477Z,10.58
2022-10-08T01:21:27.443Z,10.57
2022-10-08T01:22:51.632Z,10.57
2022-10-08T01:24:09.541Z,10.57
2022-10-08T01:25:33.857Z,10.58
2022-10-08T01:26:49.089Z,10.59
2022-10-08T01:28:00.997Z,10.59
2022-10-08T01:29:04.161Z,10.60
2022-10-08T01:30:12.998Z,10.60
2022-10-08T01:33:02.491Z,10.61
2022-10-08T01:34:13.103Z,10.61
2022-10-08T01:35:21.902Z,10.61
2022-10-08T01:36:27.549Z,10.58
2022-10-08T01:37:36.490Z,10.59
2022-10-08T01:38:43.275Z,10.60
2022-10-08T01:39:49.316Z,10.60
2022-10-08T01:40:58.916Z,10.61
2022-10-08T01:42:05.630Z,10.61
2022-10-08T01:43:12.959Z,10.61
2022-10-08T01:44:23.322Z,10.61
2022-10-08T01:45:28.499Z,10.59
2022-10-08T01:46:33.526Z,10.54
2022-10-08T01:47:40.946Z,10.53
2022-10-08T01:48:44.834Z,10.52
2022-10-08T01:49:55.911Z,10.51
2022-10-08T01:51:17.188Z,10.50
2022-10-08T01:52:37.093Z,10.48
2022-10-08T01:53:45.894Z,10.48
2022-10-08T01:54:52.178Z,10.48
2022-10-08T01:55:56.094Z,10.48
2022-10-08T01:57:02.309Z,10.48
2022-10-08T01:58:13.632Z,10.47
2022-10-08T01:59:42.199Z,10.47
2022-10-08T02:00:47.633Z,10.44
2022-10-08T02:02:01.160Z,10.44
2022-10-08T02:03:04.565Z,10.44
2022-10-08T02:04:26.245Z,10.43
2022-10-08T02:05:34.292Z,10.43
2022-10-08T02:06:42.586Z,10.42
2022-10-08T02:07:45.798Z,10.42
2022-10-08T02:08:49.802Z,10.42
2022-10-08T02:10:02.654Z,10.42
2022-10-08T02:11:06.089Z,10.41
2022-10-08T02:12:10.079Z,10.41
2022-10-08T02:13:13.484Z,10.40
2022-10-08T02:14:16.761Z,10.40
2022-10-08T02:15:46.168Z,10.38
2022-10-08T02:17:12.493Z,10.37
2022-10-08T02:18:19.122Z,10.36
2022-10-08T02:19:28.223Z,10.36
2022-10-08T02:20:37.746Z,10.36
2022-10-08T02:21:43.255Z,10.36
2022-10-08T02:23:01.187Z,10.34
2022-10-08T02:24:26.978Z,10.34
2022-10-08T02:25:44.786Z,10.33
2022-10-08T02:26:51.051Z,10.32
2022-10-08T02:28:10.719Z,10.32
2022-10-08T02:29:20.555Z,10.31
2022-10-08T02:30:24.750Z,10.29
2022-10-08T02:31:49.188Z,10.27
2022-10-08T02:33:00.432Z,10.25
2022-10-08T02:34:17.803Z,10.23
2022-10-08T02:35:27.049Z,10.23
2022-10-08T02:36:39.203Z,10.22
2022-10-08T02:37:47.574Z,10.19
2022-10-08T02:38:54.596Z,10.19
2022-10-08T02:40:05.245Z,10.18
2022-10-08T02:41:10.527Z,10.17
2022-10-08T02:42:19.217Z,10.15
2022-10-08T02:43:26.582Z,10.15
2022-10-08T02:44:35.178Z,10.14
2022-10-08T02:45:46.769Z,10.13
2022-10-08T02:46:54.164Z,10.12
2022-10-08T02:48:08.592Z,10.12
2022-10-08T02:49:33.802Z,10.11
2022-10-08T02:50:40.586Z,10.09
2022-10-08T02:51:49.396Z,10.09
2022-10-08T02:52:52.756Z,10.08
2022-10-08T02:53:56.501Z,10.06
2022-10-08T02:55:01.335Z,10.05
2022-10-08T02:56:13.769Z,10.03
2022-10-08T02:57:29.784Z,10.01
2022-10-08T02:58:33.015Z,9.99
2022-10-08T02:59:36.524Z,9.98
2022-10-08T03:00:49.283Z,9.98
2022-10-08T03:01:57.547Z,9.92
2022-10-08T03:03:15.075Z,9.90
2022-10-08T03:04:27.724Z,9.90
2022-10-08T03:05:30.996Z,9.89
2022-10-08T03:06:36.006Z,9.87
2022-10-08T03:07:39.005Z,9.85
2022-10-08T03:08:46.471Z,9.85
2022-10-08T03:09:52.951Z,9.84
2022-10-08T03:10:59.448Z,9.84
2022-10-08T03:12:02.928Z,9.85
2022-10-08T03:13:07.644Z,9.85
2022-10-08T03:14:14.044Z,9.86
2022-10-08T03:15:17.080Z,9.86
2022-10-08T03:16:23.870Z,9.86
2022-10-08T03:17:35.838Z,9.86
2022-10-08T03:18:40.024Z,9.86
2022-10-08T03:19:42.956Z,9.86
2022-10-08T03:20:50.803Z,9.88
2022-10-08T03:21:56.566Z,9.88
2022-10-08T03:23:01.796Z,9.88
2022-10-08T03:24:06.300Z,9.88
2022-10-08T03:25:09.492Z,9.89
2022-10-08T03:26:12.596Z,9.91
2022-10-08T03:27:15.740Z,9.92
2022-10-08T03:28:18.709Z,9.93
2022-10-08T03:29:21.688Z,9.94
2022-10-08T03:30:24.915Z,9.95
2022-10-08T03:31:27.962Z,9.95
2022-10-08T03:32:31.179Z,9.96
2022-10-08T03:33:34.576Z,9.96
2022-10-08T03:34:37.588Z,9.97
2022-10-08T03:35:47.596Z,9.98
2022-10-08T03:36:50.640Z,9.98
2022-10-08T03:37:54.103Z,9.98
2022-10-08T03:38:57.519Z,9.97
2022-10-08T03:40:00.559Z,9.97
2022-10-08T03:41:03.552Z,9.97
2022-10-08T03:42:06.438Z,9.97
2022-10-08T03:43:09.479Z,9.97
2022-10-08T03:44:12.530Z,9.97
2022-10-08T03:45:15.667Z,9.97
2022-10-08T03:46:19.452Z,9.98
2022-10-08T03:47:22.356Z,9.98
2022-10-08T03:48:25.467Z,9.99
2022-10-08T03:49:28.459Z,9.99
2022-10-08T03:50:31.554Z,10.00
2022-10-08T03:51:34.688Z,10.00
2022-10-08T03:52:37.886Z,10.01
2022-10-08T03:53:42.891Z,10.02
2022-10-08T03:54:45.830Z,10.04
2022-10-08T03:55:49.147Z,10.05
2022-10-08T03:56:52.224Z,10.05
2022-10-08T03:57:55.176Z,10.06
2022-10-08T03:58:59.940Z,10.07
2022-10-08T04:00:03.726Z,10.07
2022-10-08T04:01:11.866Z,10.08
2022-10-08T04:02:15.051Z,10.09
2022-10-08T04:03:17.998Z,10.09
2022-10-08T04:04:25.352Z,10.10
2022-10-08T04:05:28.859Z,10.11
2022-10-08T04:06:31.943Z,10.11
2022-10-08T04:07:35.022Z,10.12
2022-10-08T04:08:40.678Z,10.11
2022-10-08T04:09:46.519Z,10.12
2022-10-08T04:10:49.747Z,10.11
2022-10-08T04:11:52.769Z,10.11
2022-10-08T04:12:56.044Z,10.11
2022-10-08T04:14:01.098Z,10.11
2022-10-08T04:15:07.482Z,10.12
2022-10-08T04:16:15.838Z,10.12
2022-10-08T04:17:19.099Z,10.13
2022-10-08T04:18:23.688Z,10.13
2022-10-08T04:19:26.634Z,10.15
2022-10-08T04:20:37.416Z,10.16
2022-10-08T04:21:41.335Z,10.16
2022-10-08T04:22:44.852Z,10.16
2022-10-08T04:23:51.250Z,10.16
2022-10-08T04:24:54.636Z,10.17
2022-10-08T04:25:57.889Z,10.19
2022-10-08T04:27:01.038Z,10.19
2022-10-08T04:28:06.080Z,10.20
2022-10-08T04:29:12.629Z,10.21
2022-10-08T04:30:16.635Z,10.22
2022-10-08T04:31:23.210Z,10.22
2022-10-08T04:32:26.274Z,10.23
2022-10-08T04:33:31.279Z,10.23
2022-10-08T04:34:34.235Z,10.24
2022-10-08T04:35:38.253Z,10.24
2022-10-08T04:36:41.469Z,10.25
2022-10-08T04:37:44.414Z,10.24
2022-10-08T04:38:48.141Z,10.24
2022-10-08T04:39:51.158Z,10.24
2022-10-08T04:41:11.920Z,10.24
2022-10-08T04:42:15.346Z,10.21
2022-10-08T04:43:18.257Z,10.22
2022-10-08T04:44:21.256Z,10.21
2022-10-08T04:45:24.179Z,10.21
2022-10-08T04:46:27.728Z,10.21
2022-10-08T04:47:31.135Z,10.21
2022-10-08T04:48:34.300Z,10.22
2022-10-08T04:49:37.479Z,10.21
2022-10-08T04:50:40.607Z,10.21
2022-10-08T04:51:43.619Z,10.21
2022-10-08T04:52:46.888Z,10.21
2022-10-08T04:53:51.101Z,10.21
2022-10-08T04:54:54.021Z,10.20
2022-10-08T04:55:57.855Z,10.20
2022-10-08T04:57:00.812Z,10.19
2022-10-08T04:58:03.839Z,10.20
2022-10-08T04:59:06.731Z,10.21
2022-10-08T05:00:19.135Z,10.21
2022-10-08T05:01:23.830Z,10.21
2022-10-08T05:02:26.858Z,10.21
2022-10-08T05:03:30.057Z,10.22
2022-10-08T05:04:33.081Z,10.21
2022-10-08T05:05:44.331Z,10.22
2022-10-08T05:06:47.470Z,10.21
2022-10-08T05:07:50.803Z,10.21
2022-10-08T05:09:04.206Z,10.20
2022-10-08T05:10:08.987Z,10.20
2022-10-08T05:11:12.891Z,10.20
2022-10-08T05:12:15.936Z,10.21
2022-10-08T05:13:19.161Z,10.22
2022-10-08T05:14:22.320Z,10.23
2022-10-08T05:15:25.304Z,10.23
2022-10-08T05:16:28.273Z,10.24
2022-10-08T05:17:31.244Z,10.24
2022-10-08T05:18:35.383Z,10.24
2022-10-08T05:19:38.511Z,10.25
2022-10-08T05:20:41.507Z,10.26
2022-10-08T05:21:44.587Z,10.26
2022-10-08T05:22:48.009Z,10.26
2022-10-08T05:23:56.277Z,10.25
2022-10-08T05:24:59.338Z,10.24
2022-10-08T05:26:18.373Z,10.25
2022-10-08T05:27:21.662Z,10.25
2022-10-08T05:28:24.902Z,10.25
2022-10-08T05:29:30.779Z,10.26
2022-10-08T05:30:33.976Z,10.28
2022-10-08T05:31:38.395Z,10.29
2022-10-08T05:32:41.388Z,10.30
2022-10-08T05:33:45.075Z,10.32
2022-10-08T05:34:48.210Z,10.34
2022-10-08T05:35:51.442Z,10.35
2022-10-08T05:36:54.432Z,10.37
2022-10-08T05:37:57.634Z,10.36
2022-10-08T05:39:02.637Z,10.38
2022-10-08T05:40:05.937Z,10.40
2022-10-08T05:41:18.200Z,10.42
2022-10-08T05:42:21.219Z,10.46
2022-10-08T05:43:24.183Z,10.50
2022-10-08T05:44:27.152Z,10.54
2022-10-08T05:45:30.127Z,10.59
2022-10-08T05:46:35.259Z,10.63
2022-10-08T05:47:38.319Z,10.69
2022-10-08T05:48:42.060Z,10.75
2022-10-08T05:49:45.037Z,10.81
2022-10-08T05:50:48.044Z,10.87
2022-10-08T05:51:51.380Z,10.92
2022-10-08T05:52:54.348Z,10.96
2022-10-08T05:54:00.197Z,11.00
2022-10-08T05:55:03.463Z,11.02
2022-10-08T05:56:08.987Z,11.04
2022-10-08T05:57:12.009Z,11.07
2022-10-08T05:58:15.022Z,11.09
2022-10-08T05:59:21.655Z,11.11
2022-10-08T06:00:24.695Z,11.15
2022-10-08T06:01:30.830Z,11.18
2022-10-08T06:02:33.864Z,11.21
2022-10-08T06:03:36.870Z,11.24
2022-10-08T06:04:39.914Z,11.27
2022-10-08T06:05:43.032Z,11.30
2022-10-08T06:06:46.508Z,11.33
2022-10-08T06:07:49.671Z,11.37
2022-10-08T06:08:58.634Z,11.41
2022-10-08T06:10:01.732Z,11.46
2022-10-08T06:11:06.307Z,11.51
2022-10-08T06:12:10.164Z,11.55
2022-10-08T06:13:14.784Z,11.60
2022-10-08T06:14:20.326Z,11.64
2022-10-08T06:15:23.409Z,11.70
2022-10-08T06:16:27.691Z,11.75
2022-10-08T06:17:30.910Z,11.80
2022-10-08T06:18:37.341Z,11.85
2022-10-08T06:19:40.307Z,11.90
2022-10-08T06:20:43.328Z,11.94
2022-10-08T06:21:46.394Z,12.00
2022-10-08T06:22:49.729Z,12.07
2022-10-08T06:23:55.330Z,12.13
2022-10-08T06:24:58.423Z,12.20
2022-10-08T06:26:05.671Z,12.27
2022-10-08T06:27:08.791Z,12.33
2022-10-08T06:28:12.221Z,12.38
2022-10-08T06:29:17.758Z,12.43
2022-10-08T06:30:21.475Z,12.48
2022-10-08T06:31:26.572Z,12.53
2022-10-08T06:32:29.572Z,12.58
2022-10-08T06:33:32.823Z,12.63
2022-10-08T06:34:36.659Z,12.69
2022-10-08T06:35:39.756Z,12.74
2022-10-08T06:36:42.925Z,12.78
2022-10-08T06:37:48.841Z,12.81
2022-10-08T06:38:57.879Z,12.86
2022-10-08T06:40:01.127Z,12.89
2022-10-08T06:41:04.191Z,12.93
2022-10-08T06:42:07.276Z,12.98
2022-10-08T06:43:15.758Z,13.02
2022-10-08T06:44:19.278Z,13.07
2022-10-08T06:45:22.284Z,13.11
2022-10-08T06:46:25.387Z,13.16
2022-10-08T06:47:28.440Z,13.21
2022-10-08T06:48:31.831Z,13.27
2022-10-08T06:49:35.136Z,13.33
2022-10-08T06:50:39.264Z,13.39
2022-10-08T06:51:42.316Z,13.44
2022-10-08T06:52:46.138Z,13.49
2022-10-08T06:53:54.935Z,13.54
2022-10-08T06:54:58.451Z,13.59
2022-10-08T06:56:05.244Z,13.63
2022-10-08T06:57:08.305Z,13.67
2022-10-08T06:58:11.195Z,13.72
2022-10-08T06:59:14.172Z,13.75
2022-10-08T07:00:17.553Z,13.78
2022-10-08T07:01:31.846Z,13.82
2022-10-08T07:02:36.342Z,13.86
2022-10-08T07:03:39.653Z,13.88
2022-10-08T07:04:42.550Z,13.92
2022-10-08T07:05:45.514Z,13.96
2022-10-08T07:06:49.266Z,14.00
2022-10-08T07:07:52.649Z,14.02
2022-10-08T07:09:01.244Z,14.06
2022-10-08T07:10:05.638Z,14.10
2022-10-08T07:11:17.065Z,14.13
2022-10-08T07:12:20.289Z,14.16
2022-10-08T07:13:23.404Z,14.19
2022-10-08T07:14:26.358Z,14.22
2022-10-08T07:15:31.269Z,14.26
2022-10-08T07:16:34.429Z,14.32
2022-10-08T07:17:37.701Z,14.37
2022-10-08T07:18:41.407Z,14.41
2022-10-08T07:19:44.383Z,14.46
2022-10-08T07:20:55.859Z,14.50
2022-10-08T07:22:01.319Z,14.54
2022-10-08T07:23:04.753Z,14.58
2022-10-08T07:24:07.840Z,14.61
2022-10-08T07:25:10.986Z,14.65
2022-10-08T07:26:19.171Z,14.69
2022-10-08T07:27:22.168Z,14.73
2022-10-08T07:28:27.614Z,14.76
2022-10-08T07:29:30.748Z,14.79
2022-10-08T07:30:36.396Z,14.84
2022-10-08T07:31:39.666Z,14.89
2022-10-08T07:32:42.656Z,14.94
2022-10-08T07:33:45.689Z,14.99
2022-10-08T07:34:48.729Z,15.03
2022-10-08T07:35:51.711Z,15.07
2022-10-08T07:36:54.765Z,15.11
2022-10-08T07:37:58.000Z,15.14
2022-10-08T07:39:03.886Z,15.17
2022-10-08T07:40:07.264Z,15.20
2022-10-08T07:41:11.669Z,15.23
2022-10-08T07:42:17.075Z,15.27
2022-10-08T07:43:20.083Z,15.31
2022-10-08T07:44:23.248Z,15.36
2022-10-08T07:45:26.224Z,15.40
2022-10-08T07:46:31.305Z,15.46
2022-10-08T07:47:34.790Z,15.52
2022-10-08T07:48:38.907Z,15.56
2022-10-08T07:49:41.967Z,15.61
2022-10-08T07:50:44.953Z,15.66
2022-10-08T07:51:48.166Z,15.70
2022-10-08T07:52:51.292Z,15.75
2022-10-08T07:53:57.677Z,15.80
2022-10-08T07:55:03.939Z,15.87
2022-10-08T07:56:09.136Z,15.92
2022-10-08T07:57:12.107Z,15.99
2022-10-08T07:58:15.147Z,16.07
2022-10-08T07:59:18.070Z,16.14
2022-10-08T08:00:25.897Z,16.19
2022-10-08T08:01:30.454Z,16.25
2022-10-08T08:02:33.764Z,16.31
2022-10-08T08:03:36.784Z,16.38
2022-10-08T08:04:39.958Z,16.46
2022-10-08T08:05:43.041Z,16.55
2022-10-08T08:06:52.404Z,16.63
2022-10-08T08:07:55.402Z,16.71
2022-10-08T08:09:00.376Z,16.78
2022-10-08T08:10:04.043Z,16.84
2022-10-08T08:11:09.287Z,16.85
2022-10-08T08:12:12.511Z,16.78
2022-10-08T08:13:15.807Z,16.68
2022-10-08T08:14:19.824Z,16.57
2022-10-08T08:15:22.985Z,16.45
2022-10-08T08:16:27.904Z,16.34
2022-10-08T08:17:31.413Z,16.25
2022-10-08T08:18:37.222Z,16.16
2022-10-08T08:19:40.330Z,16.08
2022-10-08T08:20:43.377Z,16.01
2022-10-08T08:21:46.826Z,15.95
2022-10-08T08:22:50.555Z,15.89
2022-10-08T08:23:55.846Z,15.85
2022-10-08T08:24:58.892Z,15.82
2022-10-08T08:26:03.796Z,15.80
2022-10-08T08:27:06.938Z,15.85
2022-10-08T08:28:10.061Z,15.98
2022-10-08T08:29:18.555Z,16.14
2022-10-08T08:30:21.996Z,16.31
2022-10-08T08:31:30.824Z,16.45
2022-10-08T08:32:34.235Z,16.61
2022-10-08T08:33:37.473Z,16.75
2022-10-08T08:34:40.956Z,16.89
2022-10-08T08:35:53.532Z,16.98
2022-10-08T08:36:59.230Z,17.00
2022-10-08T08:38:02.329Z,16.98
2022-10-08T08:39:07.721Z,16.95
2022-10-08T08:40:11.118Z,16.92
2022-10-08T08:41:37.752Z,16.88
2022-10-08T08:42:52.227Z,16.81
2022-10-08T08:44:08.657Z,16.76
2022-10-08T08:45:45.815Z,16.71
2022-10-08T08:47:05.160Z,16.64
2022-10-08T08:48:24.886Z,16.59
2022-10-08T08:49:34.881Z,16.56
2022-10-08T08:50:45.503Z,16.52
2022-10-08T08:51:52.636Z,16.48
2022-10-08T08:52:56.129Z,16.46
2022-10-08T08:53:59.945Z,16.43
2022-10-08T08:55:17.157Z,16.41
2022-10-08T08:56:22.566Z,16.39
2022-10-08T08:57:41.665Z,16.38
2022-10-08T08:59:00.184Z,16.38
2022-10-08T09:00:11.416Z,16.38
2022-10-08T09:01:20.276Z,16.39
2022-10-08T09:02:28.692Z,16.39
2022-10-08T09:03:41.189Z,16.40
2022-10-08T09:04:50.616Z,16.41
2022-10-08T09:05:58.371Z,16.42
2022-10-08T09:07:05.827Z,16.42
2022-10-08T09:08:18.059Z,16.43
2022-10-08T09:09:42.849Z,16.43
2022-10-08T09:10:52.669Z,16.43
2022-10-08T09:11:56.030Z,16.44
2022-10-08T09:13:01.683Z,16.44
2022-10-08T09:14:37.023Z,16.46
2022-10-08T09:15:40.625Z,16.46
2022-10-08T09:16:43.734Z,16.46
2022-10-08T09:17:51.794Z,16.47
2022-10-08T09:18:54.866Z,16.46
2022-10-08T09:19:58.721Z,16.46
2022-10-08T09:21:02.147Z,16.45
2022-10-08T09:22:20.830Z,16.44
2022-10-08T09:23:26.486Z,16.42
2022-10-08T09:24:29.827Z,16.41
2022-10-08T09:25:34.053Z,16.41
2022-10-08T09:26:37.024Z,16.39
2022-10-08T09:27:48.095Z,16.39
2022-10-08T09:28:56.955Z,16.38
2022-10-08T09:30:00.044Z,16.39
2022-10-08T09:31:31.108Z,16.38
2022-10-08T09:32:34.183Z,16.37
2022-10-08T09:33:39.960Z,16.38
2022-10-08T09:34:43.885Z,16.37
2022-10-08T09:35:51.840Z,16.38
2022-10-08T09:37:04.911Z,16.39
2022-10-08T09:38:19.985Z,16.42
2022-10-08T09:39:24.500Z,16.47
2022-10-08T09:40:28.531Z,16.52
2022-10-08T09:41:31.786Z,16.58
2022-10-08T09:42:34.732Z,16.64
2022-10-08T09:43:37.658Z,16.73
2022-10-08T09:44:46.299Z,16.81
2022-10-08T09:45:49.802Z,16.91
2022-10-08T09:47:05.684Z,17.00
2022-10-08T09:48:29.705Z,17.11
2022-10-08T09:49:38.488Z,17.23
2022-10-08T09:50:53.267Z,17.30
2022-10-08T09:51:59.478Z,17.37
2022-10-08T09:53:02.627Z,17.42
2022-10-08T09:54:06.175Z,17.45
2022-10-08T09:55:17.788Z,17.48
2022-10-08T09:56:28.150Z,17.49
2022-10-08T09:57:33.852Z,17.50
2022-10-08T09:58:49.264Z,17.52
2022-10-08T10:00:02.844Z,17.55
2022-10-08T10:01:15.810Z,17.58
2022-10-08T10:02:36.890Z,17.62
2022-10-08T10:03:47.622Z,17.70
2022-10-08T10:04:55.351Z,17.77
2022-10-08T10:06:02.103Z,17.84
2022-10-08T10:07:05.694Z,17.91
2022-10-08T10:08:43.341Z,17.97
2022-10-08T10:09:58.708Z,18.05
2022-10-08T10:11:02.149Z,18.11
2022-10-08T10:12:25.154Z,18.17
2022-10-08T10:13:35.469Z,18.27
2022-10-08T10:14:44.157Z,18.34
2022-10-08T10:15:53.173Z,18.41
2022-10-08T10:17:02.673Z,18.48
2022-10-08T10:18:14.070Z,18.54
2022-10-08T10:19:22.643Z,18.59
2022-10-08T10:20:36.369Z,18.64
2022-10-08T10:21:53.545Z,18.68
2022-10-08T10:23:02.892Z,18.69
2022-10-08T10:24:43.270Z,18.67
2022-10-08T10:26:06.338Z,18.66
2022-10-08T10:27:16.450Z,18.65
2022-10-08T10:28:43.134Z,18.65
2022-10-08T10:30:05.331Z,18.65
2022-10-08T10:31:32.169Z,18.61
2022-10-08T10:32:44.883Z,18.59
2022-10-08T10:34:02.834Z,18.57
2022-10-08T10:35:17.382Z,18.52
2022-10-08T10:36:22.297Z,18.48
2022-10-08T10:37:34.430Z,18.43
2022-10-08T10:38:50.304Z,18.39
2022-10-08T10:40:16.472Z,18.36
2022-10-08T10:41:28.582Z,18.31
2022-10-08T10:42:51.091Z,18.29
2022-10-08T10:44:00.790Z,18.26
2022-10-08T10:45:18.369Z,18.26
2022-10-08T10:46:44.638Z,18.28
2022-10-08T10:47:50.439Z,18.30
2022-10-08T10:48:53.619Z,18.31
2022-10-08T10:49:58.644Z,18.31
2022-10-08T10:51:19.669Z,18.30
2022-10-08T10:53:00.506Z,18.27
2022-10-08T10:54:25.224Z,18.23
2022-10-08T10:55:54.706Z,18.21
2022-10-08T10:57:05.059Z,18.19
2022-10-08T10:58:21.924Z,18.18
2022-10-08T10:59:46.609Z,18.16
2022-10-08T11:01:08.442Z,18.13
2022-10-08T11:02:21.246Z,18.12
2022-10-08T11:03:45.968Z,18.11
2022-10-08T11:05:14.848Z,18.11
2022-10-08T11:06:49.706Z,18.12
2022-10-08T11:08:14.619Z,18.16
2022-10-08T11:09:49.397Z,18.18
2022-10-08T11:10:55.404Z,18.22
2022-10-08T11:12:10.016Z,18.22
2022-10-08T11:13:30.844Z,18.22
2022-10-08T11:14:37.130Z,18.21
2022-10-08T11:15:49.720Z,18.18
2022-10-08T11:17:13.035Z,18.16
2022-10-08T11:18:16.215Z,18.13
2022-10-08T11:19:37.164Z,18.12
2022-10-08T11:20:40.275Z,18.10
2022-10-08T11:22:07.946Z,18.09
2022-10-08T11:23:39.136Z,18.07
2022-10-08T11:24:48.496Z,18.10
2022-10-08T11:26:20.491Z,18.13
2022-10-08T11:27:48.053Z,18.22
2022-10-08T11:29:17.161Z,18.36
2022-10-08T11:30:37.436Z,18.46
2022-10-08T11:31:43.535Z,18.53
2022-10-08T11:32:53.778Z,18.58
2022-10-08T11:33:57.568Z,18.61
2022-10-08T11:35:13.156Z,18.63
2022-10-08T11:36:32.801Z,18.66
2022-10-08T11:37:56.687Z,18.66
2022-10-08T11:39:26.701Z,18.66
2022-10-08T11:40:53.592Z,18.64
2022-10-08T11:42:00.958Z,18.63
2022-10-08T11:43:22.747Z,18.63
2022-10-08T11:44:26.927Z,18.66
2022-10-08T11:45:36.630Z,18.71
2022-10-08T11:46:41.102Z,18.77
2022-10-08T11:47:44.250Z,18.82
2022-10-08T11:48:47.546Z,18.90
2022-10-08T11:49:55.318Z,18.96
2022-10-08T11:51:20.088Z,19.01
2022-10-08T11:52:34.045Z,19.05
2022-10-08T11:53:43.576Z,19.06
2022-10-08T11:55:02.163Z,19.04
2022-10-08T11:56:19.899Z,19.04
2022-10-08T11:58:06.194Z,19.02
2022-10-08T11:59:25.746Z,19.02
2022-10-08T12:00:39.637Z,19.03
2022-10-08T12:02:02.153Z,19.04
2022-10-08T12:03:47.230Z,19.05
2022-10-08T12:04:52.820Z,19.03
2022-10-08T12:05:59.973Z,19.02
2022-10-08T12:07:27.923Z,19.01
2022-10-08T12:08:53.235Z,19.00
2022-10-08T12:10:05.649Z,18.99
2022-10-08T12:11:39.659Z,18.98
2022-10-08T12:12:51.767Z,18.97
2022-10-08T12:14:13.434Z,18.95
2022-10-08T12:15:22.890Z,18.96
2022-10-08T12:16:48.928Z,18.97
2022-10-08T12:17:57.616Z,19.00
2022-10-08T12:19:00.788Z,19.04
2022-10-08T12:20:20.722Z,19.06
2022-10-08T12:21:27.025Z,19.07
2022-10-08T12:22:29.953Z,19.07
2022-10-08T12:23:35.527Z,19.06
2022-10-08T12:24:38.584Z,19.07
2022-10-08T12:25:44.439Z,19.08
2022-10-08T12:27:20.939Z,19.10
2022-10-08T12:28:24.094Z,19.12
2022-10-08T12:29:48.053Z,19.11
2022-10-08T12:31:02.256Z,19.08
2022-10-08T12:32:05.547Z,19.05
2022-10-08T12:33:09.355Z,19.02
2022-10-08T12:34:20.147Z,19.01
2022-10-08T12:35:38.367Z,19.04
2022-10-08T12:36:48.495Z,19.13
2022-10-08T12:38:03.688Z,19.19
2022-10-08T12:39:31.723Z,19.23
2022-10-08T12:40:41.441Z,19.25
2022-10-08T12:41:59.851Z,19.26
2022-10-08T12:43:34.328Z,19.31
2022-10-08T12:44:59.773Z,19.43
2022-10-08T12:46:14.121Z,19.56
2022-10-08T12:47:40.620Z,19.67
2022-10-08T12:48:53.819Z,19.83
2022-10-08T12:50:05.207Z,19.98
2022-10-08T12:51:45.582Z,20.10
2022-10-08T12:52:48.797Z,20.22
2022-10-08T12:53:52.254Z,20.28
2022-10-08T12:54:57.800Z,20.33
2022-10-08T12:56:01.972Z,20.33
2022-10-08T12:57:11.695Z,20.32
2022-10-08T12:58:29.244Z,20.28
2022-10-08T12:59:32.738Z,20.21
2022-10-08T13:00:36.416Z,20.12
2022-10-08T13:01:42.707Z,20.05
2022-10-08T13:03:15.004Z,19.97
2022-10-08T13:04:27.305Z,19.89
2022-10-08T13:05:33.742Z,19.85
2022-10-08T13:06:36.933Z,19.82
2022-10-08T13:07:40.035Z,19.80
2022-10-08T13:08:43.392Z,19.81
2022-10-08T13:09:46.369Z,19.82
2022-10-08T13:10:49.643Z,19.82
2022-10-08T13:11:58.254Z,19.84
2022-10-08T13:13:07.435Z,19.84
2022-10-08T13:14:42.655Z,19.83
2022-10-08T13:15:45.815Z,19.78
2022-10-08T13:16:48.983Z,19.75
2022-10-08T13:17:53.582Z,19.72
2022-10-08T13:18:58.807Z,19.70
2022-10-08T13:20:18.875Z,19.70
2022-10-08T13:21:32.250Z,19.71
2022-10-08T13:22:35.416Z,19.73
2022-10-08T13:23:41.034Z,19.78
2022-10-08T13:24:44.548Z,19.94
2022-10-08T13:25:47.555Z,20.19
2022-10-08T13:26:55.867Z,20.48
2022-10-08T13:28:08.471Z,20.83
2022-10-08T13:29:23.885Z,21.24
2022-10-08T13:30:28.898Z,21.68
2022-10-08T13:31:35.017Z,22.08
2022-10-08T13:32:39.662Z,22.47
2022-10-08T13:33:43.362Z,22.80
2022-10-08T13:34:58.444Z,23.12
2022-10-08T13:36:02.717Z,23.44
2022-10-08T13:37:37.754Z,23.66
2022-10-08T13:38:41.769Z,23.97
2022-10-08T13:39:52.504Z,24.24
2022-10-08T13:40:59.075Z,24.54
2022-10-08T13:42:07.275Z,24.82
2022-10-08T13:43:11.909Z,25.09
2022-10-08T13:44:15.009Z,25.30
2022-10-08T13:45:23.676Z,25.45
2022-10-08T13:46:27.980Z,25.53
2022-10-08T13:47:31.293Z,25.60
2022-10-08T13:48:34.360Z,25.69
2022-10-08T13:49:37.366Z,25.81
2022-10-08T13:50:50.197Z,25.94
2022-10-08T13:51:54.370Z,26.08
2022-10-08T13:53:00.795Z,26.22
2022-10-08T13:54:03.819Z,26.37
2022-10-08T13:55:16.179Z,26.47
2022-10-08T13:56:21.246Z,26.49
2022-10-08T13:57:24.313Z,26.34
2022-10-08T13:58:27.563Z,26.09
2022-10-08T13:59:31.127Z,25.85
2022-10-08T14:00:36.747Z,25.66
2022-10-08T14:01:40.045Z,25.50
2022-10-08T14:02:43.027Z,25.40
2022-10-08T14:03:46.211Z,25.34
2022-10-08T14:04:49.470Z,25.30
2022-10-08T14:05:52.727Z,25.25
2022-10-08T14:06:58.146Z,25.15
2022-10-08T14:08:07.356Z,25.04
2022-10-08T14:09:16.936Z,24.92
2022-10-08T14:10:20.179Z,24.76
2022-10-08T14:11:23.493Z,24.59
2022-10-08T14:12:30.821Z,24.40
2022-10-08T14:13:33.851Z,24.14
2022-10-08T14:14:37.071Z,23.89
2022-10-08T14:15:40.189Z,23.63
2022-10-08T14:16:43.401Z,23.36
2022-10-08T14:17:46.923Z,23.10
2022-10-08T14:18:50.188Z,22.83
2022-10-08T14:19:55.446Z,22.58
2022-10-08T14:20:58.590Z,22.33
2022-10-08T14:22:01.668Z,22.10
2022-10-08T14:23:05.104Z,21.87
2022-10-08T14:24:08.254Z,21.65
2022-10-08T14:25:17.014Z,21.43
2022-10-08T14:26:20.249Z,21.19
2022-10-08T14:27:24.380Z,20.98
2022-10-08T14:28:27.729Z,20.79
2022-10-08T14:29:32.789Z,20.60
2022-10-08T14:30:36.358Z,20.43
2022-10-08T14:31:39.377Z,20.28
2022-10-08T14:32:43.418Z,20.12
2022-10-08T14:33:46.770Z,19.96
2022-10-08T14:34:49.747Z,19.82
2022-10-08T14:35:53.717Z,19.69
2022-10-08T14:36:57.978Z,19.56
2022-10-08T14:38:01.146Z,19.44
2022-10-08T14:39:05.602Z,19.33
2022-10-08T14:40:15.108Z,19.22
2022-10-08T14:41:19.950Z,19.10
2022-10-08T14:42:23.130Z,18.99
2022-10-08T14:43:27.814Z,18.90
2022-10-08T14:44:31.146Z,18.81
2022-10-08T14:45:34.466Z,18.72